Time;durP1;ratioP1;P1;durP2;ratioP2;P2;SDS_P1;SDS_P2;PMS_P1;PMS_P2;Temp;Humidity;BMP_temperature;BMP_pressure;BME280_temperature;BME280_humidity;BME280_pressure;Samples;Min_cycle;Max_cycle;Signal;HPM_P1;HPM_P2
2022/07/07 00:02:15;;;;;;;12.00;7.13;;;;;;;22.10;73.46;94859.72;5072313;28;20449;-85
2022/07/07 00:04:42;;;;;;;7.80;7.10;;;;;;;22.16;73.47;94851.72;5072226;28;20445;-86
2022/07/07 00:07:11;;;;;;;6.83;6.33;;;;;;;22.20;73.33;94852.97;5072425;28;20488;-87
2022/07/07 00:09:37;;;;;;;8.70;8.00;;;;;;;22.10;73.31;94851.72;5072268;28;20464;-85
2022/07/07 00:12:05;;;;;;;9.10;7.50;;;;;;;22.02;73.68;94857.22;5071895;28;20453;-86
2022/07/07 00:14:32;;;;;;;7.50;6.90;;;;;;;21.91;74.22;94859.41;5072367;28;20442;-83
2022/07/07 00:16:59;;;;;;;6.57;6.10;;;;;;;21.94;74.13;94858.19;5053483;28;21004;-87
2022/07/07 00:19:27;;;;;;;8.00;7.30;;;;;;;21.89;74.25;94861.47;5072284;28;20487;-86
2022/07/07 00:21:54;;;;;;;8.37;7.47;;;;;;;21.80;74.68;94853.84;5072002;28;20540;-85
2022/07/07 00:24:22;;;;;;;8.50;7.70;;;;;;;21.78;74.68;94847.88;5071853;28;20445;-85
2022/07/07 00:26:49;;;;;;;7.70;7.10;;;;;;;21.77;74.74;94856.91;5071814;28;20446;-86
2022/07/07 00:29:16;;;;;;;7.63;7.03;;;;;;;21.72;74.95;94865.53;5053299;28;20948;-86
2022/07/07 00:31:43;;;;;;;8.03;7.30;;;;;;;21.78;74.98;94861.22;5072276;28;20456;-87
2022/07/07 00:34:10;;;;;;;8.10;7.50;;;;;;;21.66;74.84;94858.28;5071863;28;20447;-89
2022/07/07 00:36:39;;;;;;;7.23;6.60;;;;;;;21.65;74.98;94864.66;5036668;28;20429;-85
2022/07/07 00:39:06;;;;;;;7.83;7.13;;;;;;;21.63;75.33;94866.69;5072021;28;20857;-85
2022/07/07 00:41:34;;;;;;;8.57;7.87;;;;;;;21.59;75.02;94866.28;5072226;28;20545;-86
2022/07/07 00:44:01;;;;;;;7.80;7.10;;;;;;;21.60;75.24;94873.28;5072415;28;20445;-85
2022/07/07 00:46:42;;;;;;;8.23;7.57;;;;;;;21.58;75.39;94861.97;5053323;28;20456;-88
2022/07/07 00:49:10;;;;;;;7.43;6.60;;;;;;;21.52;74.83;94861.94;5075800;28;20491;-89
2022/07/07 00:51:38;;;;;;;6.90;6.30;;;;;;;21.51;75.15;94868.31;5075530;28;20459;-87
2022/07/07 00:54:05;;;;;;;7.53;6.77;;;;;;;21.48;74.54;94860.69;5075448;28;20448;-88
2022/07/07 00:56:34;;;;;;;8.33;6.80;;;;;;;21.44;74.45;94857.59;5040065;28;20433;-85
2022/07/07 00:59:06;;;;;;;7.40;6.70;;;;;;;21.46;75.34;94860.88;5075481;28;20441;-87
2022/07/07 01:01:34;;;;;;;7.23;6.53;;;;;;;21.45;74.82;94859.25;5075669;28;20448;-87
2022/07/07 01:04:03;;;;;;;7.13;6.40;;;;;;;21.42;74.72;94848.97;5075557;28;20808;-86
2022/07/07 01:06:30;;;;;;;6.10;5.70;;;;;;;21.49;75.25;94852.47;5075470;28;20964;-86
2022/07/07 01:08:57;;;;;;;6.73;6.10;;;;;;;21.48;73.96;94845.50;5056108;28;20496;-85
2022/07/07 01:11:24;;;;;;;8.73;6.50;;;;;;;21.39;73.79;94848.50;5056549;28;20441;-86
2022/07/07 01:13:52;;;;;;;7.17;6.57;;;;;;;21.29;73.69;94857.69;5075231;28;20944;-86
2022/07/07 01:16:19;;;;;;;7.03;6.47;;;;;;;21.30;74.36;94854.00;5075368;28;20449;-89
2022/07/07 01:18:46;;;;;;;5.83;5.23;;;;;;;21.31;74.01;94846.81;5056987;28;20944;-86
2022/07/07 01:21:17;;;;;;;8.60;6.00;;;;;;;21.24;73.54;94854.81;5075171;28;20442;-86
2022/07/07 01:23:46;;;;;;;8.80;6.13;;;;;;;21.32;73.89;94859.97;5075241;28;20445;-86
2022/07/07 01:26:13;;;;;;;5.90;5.50;;;;;;;21.32;72.92;94865.31;5074899;28;20468;-86
2022/07/07 01:28:41;;;;;;;6.30;5.73;;;;;;;21.29;72.66;94863.03;5075020;28;20847;-86
2022/07/07 01:31:08;;;;;;;9.60;5.63;;;;;;;21.26;73.45;94865.28;5074688;28;20445;-87
2022/07/07 01:33:35;;;;;;;6.77;6.17;;;;;;;21.28;73.06;94873.91;5075270;28;20920;-86
2022/07/07 01:36:02;;;;;;;5.70;5.30;;;;;;;21.27;75.24;94865.09;5055820;28;20425;-86
2022/07/07 01:38:29;;;;;;;7.70;5.10;;;;;;;21.25;73.21;94880.47;5074909;28;20473;-87
2022/07/07 01:40:57;;;;;;;6.30;5.70;;;;;;;21.17;73.16;94861.91;5074874;28;20970;-87
2022/07/07 01:43:24;;;;;;;5.77;5.30;;;;;;;21.22;73.33;94861.31;5074993;28;20457;-86
2022/07/07 01:45:51;;;;;;;6.73;6.23;;;;;;;21.31;74.12;94862.84;5073506;28;20445;-89
2022/07/07 01:48:18;;;;;;;4.90;4.60;;;;;;;21.39;73.25;94873.34;5074459;28;20485;-86
2022/07/07 01:50:45;;;;;;;10.37;5.57;;;;;;;21.45;72.17;94869.09;5055576;28;20535;-86
2022/07/07 01:53:12;;;;;;;5.80;5.30;;;;;;;21.50;73.61;94870.16;5074554;28;20448;-86
2022/07/07 01:55:38;;;;;;;5.53;5.13;;;;;;;21.58;72.37;94864.63;5074428;28;20784;-86
2022/07/07 01:58:07;;;;;;;5.43;4.80;;;;;;;21.60;71.81;94859.91;5074016;28;20445;-87
2022/07/07 02:00:34;;;;;;;4.90;4.50;;;;;;;21.59;70.84;94870.78;5073474;28;20491;-85
2022/07/07 02:03:00;;;;;;;5.30;4.87;;;;;;;21.52;70.96;94870.78;5074747;28;20460;-86
2022/07/07 02:05:27;;;;;;;7.80;5.00;;;;;;;21.47;70.78;94873.22;5075600;28;20488;-86
2022/07/07 02:07:54;;;;;;;5.50;5.10;;;;;;;21.41;71.60;94868.66;5073707;28;20496;-86
2022/07/07 02:13:02;;;;;;;4.87;4.50;;;;;;;21.52;70.40;94877.97;5074003;28;20510;-86
2022/07/07 02:15:31;;;;;;;5.00;4.60;;;;;;;21.47;69.97;94873.22;5073925;28;20449;-85
2022/07/07 02:17:58;;;;;;;5.10;4.67;;;;;;;21.51;70.93;94874.47;5076537;28;20441;-87
2022/07/07 02:20:25;;;;;;;4.60;4.20;;;;;;;21.49;70.10;94865.81;5074676;28;20453;-88
2022/07/07 02:22:52;;;;;;;4.77;4.30;;;;;;;21.51;69.95;94868.31;5039360;28;20440;-84
2022/07/07 02:25:19;;;;;;;4.33;4.00;;;;;;;21.44;69.51;94872.78;5074470;28;20433;-87
2022/07/07 02:27:46;;;;;;;4.27;3.87;;;;;;;21.42;69.59;94874.84;5074337;28;20955;-88
2022/07/07 02:30:13;;;;;;;4.87;4.47;;;;;;;21.41;70.51;94871.34;5074271;28;20456;-90
2022/07/07 02:32:42;;;;;;;4.43;4.13;;;;;;;21.41;69.44;94868.66;5074910;28;20441;-90
2022/07/07 02:35:09;;;;;;;4.73;3.97;;;;;;;21.45;69.81;94875.25;5074943;28;20446;-89
2022/07/07 02:37:36;;;;;;;7.03;4.00;;;;;;;21.46;69.85;94878.75;5074697;28;20449;-88
2022/07/07 02:40:04;;;;;;;4.37;4.07;;;;;;;21.36;69.10;94879.09;5075142;28;20442;-87
2022/07/07 02:42:30;;;;;;;3.97;3.70;;;;;;;21.20;69.27;94876.72;5039973;28;20433;-87
2022/07/07 02:44:57;;;;;;;4.47;4.07;;;;;;;21.13;69.87;94873.19;5075289;28;20460;-87
2022/07/07 02:47:24;;;;;;;4.77;4.37;;;;;;;21.18;70.00;94873.41;5075277;28;20479;-87
2022/07/07 02:49:52;;;;;;;4.87;3.90;;;;;;;21.24;72.47;94862.81;5074817;28;20827;-86
2022/07/07 02:52:19;;;;;;;4.27;3.97;;;;;;;21.44;71.57;94873.63;5075867;28;20433;-87
2022/07/07 02:54:46;;;;;;;5.87;3.73;;;;;;;21.68;73.21;94880.28;5078159;28;20469;-86
2022/07/07 02:57:13;;;;;;;4.20;3.90;;;;;;;22.09;72.83;94882.97;5080418;28;20441;-85
2022/07/07 02:59:40;;;;;;;4.40;4.10;;;;;;;22.31;68.40;94880.97;5077285;28;20532;-85
2022/07/07 03:02:07;;;;;;;3.97;3.67;;;;;;;22.38;65.93;94880.97;5082144;28;20430;-89
2022/07/07 03:04:34;;;;;;;3.73;3.43;;;;;;;22.34;65.69;94879.72;5082488;28;20457;-88
2022/07/07 03:07:02;;;;;;;3.77;3.30;;;;;;;22.25;64.35;94887.09;5044768;28;20465;-89
2022/07/07 03:09:29;;;;;;;4.53;3.40;;;;;;;22.16;65.13;94883.78;5074698;28;20503;-89
2022/07/07 03:11:56;;;;;;;4.10;3.80;;;;;;;22.23;69.99;94886.47;5074996;28;20528;-92
2022/07/07 03:14:24;;;;;;;4.53;4.23;;;;;;;22.50;70.39;94893.53;5057043;28;20808;-90
2022/07/07 03:16:51;;;;;;;4.67;4.27;;;;;;;22.84;67.89;94889.06;5073773;28;21006;-81
2022/07/07 03:19:18;;;;;;;4.10;3.60;;;;;;;23.16;66.73;94906.16;5038799;28;20936;-91
2022/07/07 03:21:45;;;;;;;3.90;3.60;;;;;;;23.30;61.99;94902.44;5073609;28;20437;-86
2022/07/07 03:24:14;;;;;;;6.07;4.10;;;;;;;23.31;64.84;94889.88;5074326;28;20525;-89
2022/07/07 03:26:41;;;;;;;8.67;4.40;;;;;;;23.38;65.77;94899.53;5076064;28;20832;-89
2022/07/07 03:29:08;;;;;;;6.40;4.17;;;;;;;23.28;64.68;94883.06;5074291;28;20489;-88
2022/07/07 03:31:35;;;;;;;7.97;4.43;;;;;;;23.27;62.87;94892.16;5073788;28;20442;-85
2022/07/07 03:34:02;;;;;;;5.40;4.00;;;;;;;23.25;63.95;94885.34;5073481;28;20431;-84
2022/07/07 03:36:29;;;;;;;5.13;3.47;;;;;;;23.30;63.02;94897.06;5073019;28;20460;-84
2022/07/07 03:38:56;;;;;;;6.23;3.70;;;;;;;23.38;64.59;94893.34;5073548;28;20449;-84
2022/07/07 03:41:24;;;;;;;3.87;3.50;;;;;;;23.58;61.02;94893.34;5038075;28;20457;-86
2022/07/07 03:43:51;;;;;;;4.30;4.00;;;;;;;23.73;60.20;94905.47;5055123;28;20450;-86
2022/07/07 03:46:18;;;;;;;4.47;3.77;;;;;;;24.02;60.24;94898.78;5073798;28;20435;-86
2022/07/07 03:48:45;;;;;;;6.70;3.80;;;;;;;24.19;58.37;94903.63;5073266;28;20494;-84
2022/07/07 03:51:11;;;;;;;3.80;3.30;;;;;;;24.53;59.60;94897.09;5072721;28;20480;-85
2022/07/07 03:53:38;;;;;;;6.40;3.53;;;;;;;24.73;57.16;94887.03;5072495;28;20457;-85
2022/07/07 03:56:05;;;;;;;3.80;3.50;;;;;;;24.90;56.34;94888.16;5071912;28;20531;-85
2022/07/07 03:58:34;;;;;;;4.00;3.70;;;;;;;24.84;55.56;94898.94;5072025;28;20820;-85
2022/07/07 04:01:01;;;;;;;3.37;3.03;;;;;;;24.99;56.33;94899.47;5071299;28;20518;-85
2022/07/07 04:03:28;;;;;;;3.77;3.47;;;;;;;25.05;55.64;94895.09;5072524;28;20493;-86
2022/07/07 04:05:54;;;;;;;4.07;3.67;;;;;;;25.12;55.13;94888.63;5072019;28;20448;-85
2022/07/07 04:08:21;;;;;;;6.97;3.60;;;;;;;25.30;54.69;94899.41;5036116;28;20509;-84
2022/07/07 04:10:48;;;;;;;5.00;4.13;;;;;;;25.20;54.15;94890.22;5072051;28;20453;-85
2022/07/07 04:13:15;;;;;;;4.40;4.00;;;;;;;24.89;56.40;94891.06;5072152;28;20443;-85
2022/07/07 04:15:43;;;;;;;3.50;3.30;;;;;;;24.90;55.59;94888.16;5053205;28;20445;-87
2022/07/07 04:18:11;;;;;;;4.60;3.37;;;;;;;25.17;59.14;94896.88;5072145;28;20446;-85
2022/07/07 04:20:38;;;;;;;2.90;2.70;;;;;;;25.21;56.48;94897.25;5071901;28;20847;-86
2022/07/07 04:23:05;;;;;;;3.67;3.43;;;;;;;25.15;54.26;94888.19;5073835;28;20443;-85
2022/07/07 04:25:32;;;;;;;4.80;3.30;;;;;;;25.42;54.29;94896.00;5075567;28;20987;-86
2022/07/07 04:27:59;;;;;;;3.60;3.30;;;;;;;25.56;53.10;94892.16;5075744;28;20454;-87
2022/07/07 04:30:41;;;;;;;4.67;2.70;;;;;;;25.71;52.18;94900.69;5056538;28;20503;-86
2022/07/07 04:33:09;;;;;;;4.27;2.80;;;;;;;25.92;52.21;94905.63;5075426;28;20452;-86
2022/07/07 04:35:36;;;;;;;3.40;3.20;;;;;;;26.06;51.72;94900.94;5075552;28;20965;-85
2022/07/07 04:38:09;;;;;;;3.40;3.20;;;;;;;26.17;53.05;94894.78;5075304;28;20451;-87
2022/07/07 04:40:36;;;;;;;5.20;3.30;;;;;;;26.39;51.89;94899.72;5075446;28;20446;-87
2022/07/07 04:43:03;;;;;;;3.50;3.20;;;;;;;26.53;50.00;94903.84;5075838;28;20483;-86
2022/07/07 04:45:30;;;;;;;3.20;3.00;;;;;;;26.59;51.16;94902.09;5075655;28;20459;-85
2022/07/07 04:47:56;;;;;;;3.17;2.97;;;;;;;26.44;50.51;94903.34;5075615;28;21024;-85
2022/07/07 04:50:25;;;;;;;3.20;2.80;;;;;;;26.40;50.78;94907.56;5075390;28;20910;-86
2022/07/07 04:52:52;;;;;;;4.53;3.10;;;;;;;26.39;50.95;94903.22;5075148;28;20447;-85
2022/07/07 04:55:19;;;;;;;6.13;3.40;;;;;;;26.46;49.84;94908.50;5056543;28;20453;-85
2022/07/07 04:57:46;;;;;;;3.63;3.37;;;;;;;26.55;51.24;94907.13;5075454;28;20444;-86
2022/07/07 05:00:14;;;;;;;3.50;3.20;;;;;;;26.43;50.37;94903.59;5075071;28;20807;-85
2022/07/07 05:02:41;;;;;;;4.83;3.43;;;;;;;26.50;51.03;94902.44;5075497;28;20454;-86
2022/07/07 05:05:09;;;;;;;5.87;3.43;;;;;;;26.44;50.06;94903.34;5074558;28;20446;-85
2022/07/07 05:07:37;;;;;;;2.90;2.70;;;;;;;26.62;49.79;94898.97;5075161;28;20456;-85
2022/07/07 05:10:04;;;;;;;3.30;3.10;;;;;;;26.56;49.86;94903.38;5074712;28;20998;-86
2022/07/07 05:12:31;;;;;;;4.40;3.57;;;;;;;26.71;49.89;94897.59;5074748;28;20453;-85
2022/07/07 05:14:58;;;;;;;4.00;3.53;;;;;;;26.66;52.13;94884.84;5074900;28;20517;-86
2022/07/07 05:17:25;;;;;;;6.03;3.20;;;;;;;26.70;49.61;94893.28;5075094;28;20443;-87
2022/07/07 05:19:52;;;;;;;2.70;2.40;;;;;;;26.67;49.54;94894.56;5074910;28;20444;-85
2022/07/07 05:22:19;;;;;;;3.70;3.33;;;;;;;26.83;51.14;94893.06;5074816;28;20927;-86
2022/07/07 05:24:47;;;;;;;3.97;3.57;;;;;;;26.86;49.24;94892.59;5074624;28;20441;-86
2022/07/07 05:27:14;;;;;;;5.40;3.17;;;;;;;26.85;48.89;94890.94;5074928;28;20449;-86
2022/07/07 05:29:41;;;;;;;3.27;2.97;;;;;;;26.89;47.80;94896.69;5074496;28;20477;-86
2022/07/07 05:32:08;;;;;;;2.97;2.77;;;;;;;26.72;50.28;94885.78;5074643;28;20450;-85
2022/07/07 05:34:35;;;;;;;3.70;3.40;;;;;;;26.53;50.12;94882.31;5073592;28;20450;-86
2022/07/07 05:37:02;;;;;;;8.20;3.00;;;;;;;26.70;50.07;94888.69;5074593;28;20475;-86
2022/07/07 05:39:30;;;;;;;3.57;3.23;;;;;;;26.75;49.98;94886.13;5039015;28;20455;-85
2022/07/07 05:41:58;;;;;;;3.40;3.10;;;;;;;26.59;49.97;94897.53;5074401;28;20450;-85
2022/07/07 05:44:25;;;;;;;3.10;2.87;;;;;;;26.85;50.71;94896.34;5038722;28;20456;-85
2022/07/07 05:46:52;;;;;;;3.40;3.10;;;;;;;26.75;49.01;94880.75;5074283;28;20827;-86
2022/07/07 05:49:19;;;;;;;3.60;3.40;;;;;;;26.86;49.77;94906.06;5073937;28;20487;-86
2022/07/07 05:51:46;;;;;;;3.10;2.90;;;;;;;27.16;49.22;94895.25;5074306;28;20858;-85
2022/07/07 05:54:14;;;;;;;6.33;4.00;;;;;;;27.45;48.48;94886.25;5073896;28;20452;-86
2022/07/07 05:56:41;;;;;;;3.87;3.40;;;;;;;27.37;47.03;94883.09;5074297;28;20454;-86
2022/07/07 05:59:09;;;;;;;3.50;3.30;;;;;;;27.14;47.40;94890.09;5074211;28;20832;-88
2022/07/07 06:01:36;;;;;;;2.80;2.70;;;;;;;26.98;50.32;94884.56;5074362;28;20458;-86
2022/07/07 06:04:03;;;;;;;3.83;2.97;;;;;;;26.90;48.79;94896.50;5073772;28;20458;-87
2022/07/07 06:06:30;;;;;;;3.50;3.30;;;;;;;26.82;48.28;94900.31;5073919;28;20462;-86
2022/07/07 06:08:57;;;;;;;4.10;3.20;;;;;;;26.68;48.73;94892.69;5073596;28;20495;-86
2022/07/07 06:11:24;;;;;;;3.30;2.97;;;;;;;26.74;48.82;94899.81;5074043;28;20465;-86
2022/07/07 06:13:51;;;;;;;3.40;3.10;;;;;;;26.69;49.15;94897.00;5073674;28;20532;-88
2022/07/07 06:16:38;;;;;;;3.80;3.37;;;;;;;26.46;49.58;94903.94;5073933;28;20457;-85
2022/07/07 06:19:05;;;;;;;3.97;3.57;;;;;;;26.85;50.78;94901.72;5073775;28;20953;-85
2022/07/07 06:21:32;;;;;;;4.97;3.90;;;;;;;26.80;48.81;94909.69;5073844;28;20456;-88
2022/07/07 06:23:59;;;;;;;5.77;4.37;;;;;;;26.89;48.92;94913.69;5073523;28;20449;-87
2022/07/07 06:26:26;;;;;;;4.50;4.10;;;;;;;27.03;49.15;94919.72;5073539;28;20441;-86
2022/07/07 06:28:53;;;;;;;3.53;3.33;;;;;;;27.41;48.76;94916.59;5073473;28;20456;-86
2022/07/07 06:31:21;;;;;;;3.90;3.57;;;;;;;27.14;48.67;94917.03;5073704;28;20917;-86
2022/07/07 06:33:48;;;;;;;3.80;3.40;;;;;;;27.09;49.51;94918.78;5073642;28;20431;-86
2022/07/07 06:36:16;;;;;;;7.10;3.40;;;;;;;27.10;49.09;94913.16;5074058;28;20882;-86
2022/07/07 06:38:43;;;;;;;3.73;3.53;;;;;;;27.44;47.53;94916.13;5073624;28;20449;-85
2022/07/07 06:41:10;;;;;;;4.00;3.70;;;;;;;27.37;49.09;94918.13;5073584;28;20451;-87
2022/07/07 06:43:37;;;;;;;5.03;3.47;;;;;;;27.04;47.85;94913.28;5073182;28;20450;-88
2022/07/07 06:46:04;;;;;;;8.77;4.33;;;;;;;26.92;48.56;94910.53;5072820;28;20455;-85
2022/07/07 06:48:33;;;;;;;5.30;4.30;;;;;;;27.05;48.97;94913.03;5054333;28;20960;-87
2022/07/07 06:51:00;;;;;;;4.47;3.13;;;;;;;27.34;48.94;94915.91;5072861;28;20549;-85
2022/07/07 06:53:26;;;;;;;4.47;4.07;;;;;;;27.24;47.42;94907.59;5073318;28;20462;-86
2022/07/07 06:55:54;;;;;;;4.23;3.20;;;;;;;27.01;48.21;94905.66;5037568;28;20463;-86
2022/07/07 06:58:21;;;;;;;4.53;4.13;;;;;;;27.10;48.50;94913.16;5072950;28;20536;-87
2022/07/07 07:00:48;;;;;;;5.00;4.20;;;;;;;27.06;50.02;94911.19;5073005;28;20450;-87
2022/07/07 07:03:14;;;;;;;6.37;4.53;;;;;;;27.01;49.14;94916.44;5072914;28;20943;-86
2022/07/07 07:05:43;;;;;;;4.23;3.90;;;;;;;27.16;49.90;94920.31;5072630;28;21001;-85
2022/07/07 07:08:10;;;;;;;4.30;3.90;;;;;;;27.32;48.88;94915.31;5072831;28;20493;-85
2022/07/07 07:10:37;;;;;;;3.73;3.20;;;;;;;27.56;47.58;94910.75;5072706;28;20487;-85
2022/07/07 07:13:04;;;;;;;4.10;3.37;;;;;;;27.62;47.64;94918.75;5072276;28;20454;-86
2022/07/07 07:15:31;;;;;;;5.03;3.40;;;;;;;27.73;45.64;94915.22;5072557;28;20516;-85
2022/07/07 07:17:58;;;;;;;3.67;3.30;;;;;;;27.70;45.41;94913.00;5072566;28;20454;-86
2022/07/07 07:20:25;;;;;;;4.03;3.70;;;;;;;27.82;45.32;94906.78;5072546;28;20875;-85
2022/07/07 07:22:53;;;;;;;4.40;4.10;;;;;;;27.87;46.69;94910.41;5037312;28;20454;-88
2022/07/07 07:25:20;;;;;;;3.60;3.30;;;;;;;28.16;46.79;94913.16;5037269;28;20498;-86
2022/07/07 07:27:47;;;;;;;3.80;3.50;;;;;;;28.29;45.98;94905.63;5037421;28;20873;-85
2022/07/07 07:30:15;;;;;;;3.60;3.30;;;;;;;28.25;44.13;94911.75;5072102;28;20486;-86
2022/07/07 07:32:42;;;;;;;4.03;3.30;;;;;;;28.14;45.16;94910.72;5072080;28;20493;-86
2022/07/07 07:35:10;;;;;;;4.73;3.40;;;;;;;27.68;46.10;94909.72;5072304;28;20443;-86
2022/07/07 07:37:38;;;;;;;3.33;3.10;;;;;;;27.85;46.43;94909.00;5072338;28;20450;-87
2022/07/07 07:40:09;;;;;;;3.70;3.50;;;;;;;28.02;46.94;94907.19;5072716;28;20448;-86
2022/07/07 07:42:36;;;;;;;3.20;3.00;;;;;;;28.08;43.97;94903.56;5072645;28;20535;-88
2022/07/07 07:45:12;;;;;;;3.87;3.50;;;;;;;28.27;44.28;94905.06;5072241;28;20450;-87
2022/07/07 07:47:41;;;;;;;3.80;3.60;;;;;;;28.32;44.29;94907.84;5072150;28;21173;-87
2022/07/07 07:50:11;;;;;;;3.63;3.30;;;;;;;28.65;44.41;94909.06;5072481;28;21048;-87
2022/07/07 07:52:39;;;;;;;3.63;3.33;;;;;;;28.66;43.58;94916.09;5072438;28;21048;-86
2022/07/07 07:55:09;;;;;;;6.00;3.70;;;;;;;28.78;42.70;94911.44;5071784;28;20946;-86
2022/07/07 07:57:37;;;;;;;3.60;2.87;;;;;;;28.82;42.62;94904.47;5073984;28;20445;-86
2022/07/07 08:00:05;;;;;;;4.30;3.33;;;;;;;28.68;44.11;94903.16;5075861;28;20946;-87
2022/07/07 08:02:32;;;;;;;4.00;3.33;;;;;;;28.33;44.85;94909.50;5075808;28;20458;-86
2022/07/07 08:04:58;;;;;;;4.00;3.70;;;;;;;28.54;44.38;94910.72;5075990;28;20826;-84
2022/07/07 08:07:25;;;;;;;6.70;3.43;;;;;;;28.45;44.25;94919.44;5040150;28;20461;-87
2022/07/07 08:09:52;;;;;;;3.43;3.17;;;;;;;28.60;43.43;94903.53;5076338;28;20852;-85
2022/07/07 08:12:20;;;;;;;3.60;3.30;;;;;;;28.93;43.91;94906.34;5075697;28;20795;-86
2022/07/07 08:14:47;;;;;;;4.33;3.57;;;;;;;28.99;44.83;94916.19;5076589;28;20452;-84
2022/07/07 08:17:14;;;;;;;6.30;3.07;;;;;;;28.93;43.52;94913.63;5076618;28;20478;-87
2022/07/07 08:19:41;;;;;;;3.63;3.30;;;;;;;28.90;43.36;94897.88;5075750;28;20539;-85
2022/07/07 08:22:08;;;;;;;3.80;3.50;;;;;;;28.89;42.82;94902.47;5076224;28;20441;-87
2022/07/07 08:24:35;;;;;;;14.87;3.67;;;;;;;29.12;43.53;94903.41;5057091;28;20528;-86
2022/07/07 08:27:03;;;;;;;4.47;3.20;;;;;;;29.28;42.91;94897.19;5075308;28;20943;-86
2022/07/07 08:29:37;;;;;;;3.43;3.23;;;;;;;29.05;42.05;94902.75;5076167;28;20459;-86
2022/07/07 08:32:05;;;;;;;4.57;3.10;;;;;;;28.91;42.99;94904.94;5075772;28;20446;-86
2022/07/07 08:34:32;;;;;;;4.20;3.57;;;;;;;28.80;42.62;94905.78;5057140;28;21025;-86
2022/07/07 08:36:59;;;;;;;3.33;3.13;;;;;;;28.88;42.71;94900.84;5076055;28;20453;-86
2022/07/07 08:39:26;;;;;;;4.63;3.13;;;;;;;29.09;41.40;94903.91;5075633;28;20476;-84
2022/07/07 08:41:53;;;;;;;11.83;3.57;;;;;;;29.20;41.61;94897.59;5075496;28;20433;-87
2022/07/07 08:44:21;;;;;;;3.83;3.40;;;;;;;29.39;40.82;94903.56;5075223;28;20455;-86
2022/07/07 08:46:49;;;;;;;4.60;3.30;;;;;;;29.38;40.59;94910.88;5075792;28;20813;-85
2022/07/07 08:49:16;;;;;;;3.30;3.10;;;;;;;29.53;41.50;94911.16;5075618;28;20455;-87
2022/07/07 08:51:45;;;;;;;3.77;3.13;;;;;;;29.65;41.42;94902.09;5074915;28;20480;-85
2022/07/07 08:54:14;;;;;;;3.47;3.27;;;;;;;29.77;42.15;94897.41;5075362;28;20429;-85
2022/07/07 08:56:41;;;;;;;4.30;3.43;;;;;;;29.88;40.60;94901.91;5075434;28;20436;-86
2022/07/07 08:59:10;;;;;;;3.87;3.57;;;;;;;29.78;40.01;94905.28;5075517;28;20437;-87
2022/07/07 09:01:38;;;;;;;3.57;3.27;;;;;;;29.90;40.34;94905.19;5075109;28;20876;-86
2022/07/07 09:04:07;;;;;;;3.70;3.40;;;;;;;30.11;39.91;94909.00;5075203;28;20441;-88
2022/07/07 09:06:34;;;;;;;4.50;3.10;;;;;;;30.26;38.58;94905.66;5075260;28;20440;-86
2022/07/07 09:09:03;;;;;;;3.23;3.03;;;;;;;30.06;40.33;94901.63;5074880;28;21018;-87
2022/07/07 09:11:33;;;;;;;4.23;3.67;;;;;;;29.99;40.99;94900.13;5075052;28;20526;-87
2022/07/07 09:14:11;;;;;;;8.10;3.10;;;;;;;30.06;39.96;94890.78;5075453;28;20479;-86
2022/07/07 09:16:38;;;;;;;2.93;2.73;;;;;;;29.78;38.64;94889.06;5075176;28;20436;-87
2022/07/07 09:19:18;;;;;;;3.40;3.20;;;;;;;29.70;41.73;94888.66;5074822;28;20437;-86
2022/07/07 09:21:44;;;;;;;3.73;3.30;;;;;;;29.51;40.88;94891.66;5074784;28;20444;-86
2022/07/07 09:24:11;;;;;;;3.67;3.43;;;;;;;29.42;42.40;94890.38;5074976;28;20455;-85
2022/07/07 09:26:40;;;;;;;3.60;3.33;;;;;;;28.64;41.22;94893.91;5074797;28;20445;-87
2022/07/07 09:29:09;;;;;;;3.93;3.50;;;;;;;28.44;42.45;94897.03;5074555;28;20463;-87
2022/07/07 09:31:55;;;;;;;5.20;3.63;;;;;;;28.57;44.45;94899.44;5074721;28;20479;-86
2022/07/07 09:34:25;;;;;;;3.97;3.57;;;;;;;28.88;45.19;94892.72;5074597;28;20477;-84
2022/07/07 09:39:42;;;;;;;4.10;3.60;;;;;;;28.36;41.99;94884.75;5074500;28;20483;-87
2022/07/07 09:42:19;;;;;;;17.67;3.93;;;;;;;28.00;43.63;94887.72;5055810;28;20496;-88
2022/07/07 09:44:48;;;;;;;3.97;3.67;;;;;;;27.73;42.96;94892.81;5074638;28;20475;-87
2022/07/07 09:47:14;;;;;;;4.93;3.57;;;;;;;27.70;44.18;94882.50;5074423;28;20449;-87
2022/07/07 09:49:44;;;;;;;3.47;3.17;;;;;;;27.81;45.22;94878.19;5074505;28;20448;-86
2022/07/07 09:52:17;;;;;;;3.53;3.30;;;;;;;27.99;44.34;94886.09;5074281;28;20442;-86
2022/07/07 09:54:48;;;;;;;4.27;3.87;;;;;;;27.89;45.48;94883.19;5074290;28;20443;-87
2022/07/07 09:57:15;;;;;;;6.43;4.47;;;;;;;27.89;45.60;94870.53;5074536;28;20446;-87
2022/07/07 09:59:42;;;;;;;4.00;3.70;;;;;;;27.80;46.86;94882.75;5055535;28;20791;-86
2022/07/07 10:02:18;;;;;;;4.53;4.23;;;;;;;27.94;47.16;94883.28;5055472;28;20482;-85
2022/07/07 10:04:48;;;;;;;5.13;4.10;;;;;;;28.17;46.90;94877.84;5073894;28;20852;-87
2022/07/07 10:07:19;;;;;;;8.90;3.97;;;;;;;28.23;45.56;94866.09;5074279;28;20452;-86
2022/07/07 10:09:51;;;;;;;5.63;4.07;;;;;;;28.35;48.03;94861.50;5074151;28;20528;-87
2022/07/07 10:12:18;;;;;;;4.00;3.77;;;;;;;28.24;44.79;94866.91;5073777;28;20463;-86
2022/07/07 10:14:45;;;;;;;7.50;3.80;;;;;;;28.12;45.95;94877.75;5073449;28;20453;-86
2022/07/07 10:17:16;;;;;;;4.00;3.80;;;;;;;27.93;46.31;94871.69;5073644;28;20478;-86
2022/07/07 10:19:43;;;;;;;4.00;3.70;;;;;;;27.94;47.01;94867.94;5073417;28;20541;-88
2022/07/07 10:22:13;;;;;;;4.70;4.30;;;;;;;27.91;46.45;94863.00;5073615;28;20442;-87
2022/07/07 10:24:41;;;;;;;4.57;4.17;;;;;;;27.79;47.25;94864.13;5073565;28;20451;-87
2022/07/07 10:27:14;;;;;;;29.37;6.63;;;;;;;27.84;46.83;94862.34;5073417;28;20442;-86
2022/07/07 10:29:42;;;;;;;16.10;5.60;;;;;;;27.87;46.58;94858.34;5037779;28;20988;-86
2022/07/07 10:32:11;;;;;;;13.37;4.70;;;;;;;27.99;47.30;94862.63;5072892;28;20544;-88
2022/07/07 10:34:39;;;;;;;8.50;5.23;;;;;;;28.08;47.47;94865.81;5073644;28;20452;-86
2022/07/07 10:37:08;;;;;;;6.60;4.00;;;;;;;28.09;46.77;94870.13;5073387;28;20439;-87
2022/07/07 10:39:42;;;;;;;4.00;3.70;;;;;;;28.15;46.59;94860.25;5072961;28;20970;-87
2022/07/07 10:42:25;;;;;;;3.60;3.40;;;;;;;28.23;46.81;94852.59;5054531;28;20497;-86
2022/07/07 10:44:54;;;;;;;4.57;4.10;;;;;;;28.30;46.06;94849.78;5037923;28;20863;-87
2022/07/07 10:47:32;;;;;;;4.60;4.00;;;;;;;28.29;45.69;94851.66;5073248;28;20554;-88
2022/07/07 10:50:00;;;;;;;6.13;4.00;;;;;;;28.11;46.79;94851.00;5073365;28;20827;-87
2022/07/07 10:52:29;;;;;;;5.07;3.70;;;;;;;27.98;45.60;94838.59;5073082;28;20487;-87
2022/07/07 10:55:00;;;;;;;7.73;3.70;;;;;;;27.77;46.71;94840.91;5072824;28;20444;-85
2022/07/07 10:57:29;;;;;;;4.47;4.07;;;;;;;27.71;46.35;94843.69;5073436;28;20945;-85
2022/07/07 11:00:15;;;;;;;4.30;3.83;;;;;;;27.69;46.75;94829.63;5073105;28;20448;-88
2022/07/07 11:02:44;;;;;;;4.27;3.87;;;;;;;27.86;47.48;94843.22;5072890;28;20474;-88
2022/07/07 11:05:32;;;;;;;3.53;3.33;;;;;;;27.85;46.03;94839.69;5072722;28;20452;-87
2022/07/07 11:08:08;;;;;;;5.00;3.77;;;;;;;27.93;45.87;94839.31;5072540;28;20890;-86
2022/07/07 11:10:49;;;;;;;3.93;3.70;;;;;;;28.04;47.13;94827.66;5072517;28;20489;-86
2022/07/07 11:13:17;;;;;;;7.67;3.40;;;;;;;28.13;48.37;94833.53;5054298;28;20453;-84
2022/07/07 11:15:44;;;;;;;3.80;3.40;;;;;;;28.03;46.93;94836.00;5072320;28;20428;-85
2022/07/07 11:18:13;;;;;;;3.80;3.43;;;;;;;27.81;47.73;94821.53;5072913;28;20447;-85
2022/07/07 11:20:57;;;;;;;3.93;3.73;;;;;;;27.93;47.44;94817.75;5074323;28;20462;-87
2022/07/07 11:23:25;;;;;;;3.93;2.87;;;;;;;28.06;48.18;94814.78;5031488;28;20459;-88
2022/07/07 11:25:56;;;;;;;3.87;3.57;;;;;;;28.26;47.04;94818.94;5031956;28;20444;-88
2022/07/07 11:28:25;;;;;;;10.80;3.40;;;;;;;28.43;45.86;94814.41;5031483;28;20449;-86
2022/07/07 11:31:01;;;;;;;12.60;5.20;;;;;;;28.71;45.86;94807.31;5029728;28;20527;-87
2022/07/07 11:33:28;;;;;;;4.40;4.00;;;;;;;28.74;45.09;94806.84;5029992;28;20529;-88
2022/07/07 11:35:55;;;;;;;4.13;3.83;;;;;;;28.37;44.57;94807.28;5030187;28;20461;-88
2022/07/07 11:38:28;;;;;;;3.40;3.20;;;;;;;28.01;47.23;94811.13;5013932;28;20452;-87
2022/07/07 11:40:57;;;;;;;4.50;3.70;;;;;;;27.78;47.60;94809.34;5030295;28;20803;-88
2022/07/07 11:43:25;;;;;;;5.20;3.67;;;;;;;27.56;48.57;94803.75;5030268;28;20453;-86
2022/07/07 11:45:52;;;;;;;3.60;3.30;;;;;;;27.59;48.41;94799.75;5030087;28;20463;-87